Terminal Aerodrome Forecast
Issued by NWS Green Bay, WI

Home | Current Version | Previous Version | Text Only | Print | Product List | Glossary On
Versions: 1 2 3 4 5 6 7 8 9 10 11 12 13 14 15 16 17 18 19 20 21 22 23
450
FTUS43 KGRB 141131
TAFGRB
TAF
KGRB 141131Z 1412/1512 15005KT P6SM SCT200
     FM141800 16010G17KT P6SM -SN BKN035 BKN090
     FM142200 15011G19KT 4SM -SN BKN020 OVC035
     FM150000 16008KT 2SM -SN BKN015 OVC025=

USA.gov is the U.S. government's official web portal to all federal, state and local government web resources and services.